createdAt,value
2022-08-07T00:00:18.676Z,98285.00
2022-08-07T00:02:46.909Z,98284.00
2022-08-07T00:05:14.268Z,98286.00
2022-08-07T00:07:41.791Z,98284.00
2022-08-07T00:10:26.066Z,98275.00
2022-08-07T00:13:00.747Z,98279.00
2022-08-07T00:15:35.981Z,98280.00
2022-08-07T00:18:05.958Z,98279.00
2022-08-07T00:20:34.373Z,98274.00
2022-08-07T00:23:08.013Z,98289.00
2022-08-07T00:25:37.580Z,98285.00
2022-08-07T00:28:09.009Z,98288.00
2022-08-07T00:30:38.088Z,98286.00
2022-08-07T00:33:07.581Z,98296.00
2022-08-07T00:35:36.721Z,98290.00
2022-08-07T00:38:04.421Z,98289.00
2022-08-07T00:40:39.320Z,98284.00
2022-08-07T00:43:14.039Z,98296.00
2022-08-07T00:45:59.119Z,98289.00
2022-08-07T00:48:31.027Z,98285.00
2022-08-07T00:51:01.060Z,98281.00
2022-08-07T00:53:38.945Z,98273.00
2022-08-07T00:56:16.209Z,98274.00
2022-08-07T00:58:46.887Z,98280.00
2022-08-07T01:01:18.533Z,98268.00
2022-08-07T01:03:56.479Z,98268.00
2022-08-07T01:06:30.684Z,98275.00
2022-08-07T01:09:01.557Z,98266.00
2022-08-07T01:12:09.144Z,98269.00
2022-08-07T01:14:28.486Z,98268.00
2022-08-07T01:16:57.063Z,98255.00
2022-08-07T01:19:27.221Z,98246.00
2022-08-07T01:21:59.908Z,98245.00
2022-08-07T01:24:30.681Z,98243.00
2022-08-07T01:26:59.814Z,98251.00
2022-08-07T01:29:33.814Z,98244.00
2022-08-07T01:32:05.193Z,98239.00
2022-08-07T01:34:34.101Z,98239.00
2022-08-07T01:37:01.905Z,98244.00
2022-08-07T01:39:40.452Z,98240.00
2022-08-07T01:42:38.729Z,98243.00
2022-08-07T01:45:15.793Z,98247.00
2022-08-07T01:48:21.722Z,98246.00
2022-08-07T01:50:35.878Z,98250.00
2022-08-07T01:53:08.767Z,98242.00
2022-08-07T01:56:06.725Z,98250.00
2022-08-07T01:58:40.891Z,98242.00
2022-08-07T02:01:59.365Z,98242.00
2022-08-07T02:04:39.304Z,98231.00
2022-08-07T02:07:36.184Z,98234.00
2022-08-07T02:10:14.470Z,98237.00
2022-08-07T02:12:46.611Z,98238.00
2022-08-07T02:15:23.149Z,98228.00
2022-08-07T02:17:54.563Z,98230.00
2022-08-07T02:20:25.163Z,98229.00
2022-08-07T02:22:59.926Z,98229.00
2022-08-07T02:26:30.478Z,98230.00
2022-08-07T02:28:24.756Z,98231.00
2022-08-07T02:30:54.410Z,98218.00
2022-08-07T02:33:42.272Z,98223.00
2022-08-07T02:36:28.520Z,98222.00
2022-08-07T02:39:02.025Z,98221.00
2022-08-07T02:41:50.828Z,98220.00
2022-08-07T02:44:23.845Z,98218.00
2022-08-07T02:46:57.661Z,98216.00
2022-08-07T02:49:56.486Z,98217.00
2022-08-07T02:55:28.341Z,98209.00
2022-08-07T02:58:21.754Z,98207.00
2022-08-07T03:00:52.849Z,98207.00
2022-08-07T03:03:22.849Z,98199.00
2022-08-07T03:05:53.907Z,98205.00
2022-08-07T03:08:29.180Z,98200.00
2022-08-07T03:10:58.366Z,98204.00
2022-08-07T03:13:25.812Z,98202.00
2022-08-07T03:15:58.514Z,98201.00
2022-08-07T03:18:34.510Z,98193.00
2022-08-07T03:21:08.812Z,98195.00
2022-08-07T03:24:19.469Z,98197.00
2022-08-07T03:26:32.334Z,98196.00
2022-08-07T03:29:03.883Z,98197.00
2022-08-07T03:31:43.476Z,98196.00
2022-08-07T03:34:18.618Z,98199.00
2022-08-07T03:36:53.642Z,98197.00
2022-08-07T03:39:58.984Z,98194.00
2022-08-07T03:42:11.594Z,98188.00
2022-08-07T03:44:40.333Z,98192.00
2022-08-07T03:47:14.177Z,98198.00
2022-08-07T03:49:51.972Z,98194.00
2022-08-07T03:52:26.504Z,98194.00
2022-08-07T03:55:06.935Z,98200.00
2022-08-07T03:58:32.612Z,98187.00
2022-08-07T04:00:30.525Z,98192.00
2022-08-07T04:03:03.962Z,98192.00
2022-08-07T04:05:40.541Z,98191.00
2022-08-07T04:08:16.308Z,98189.00
2022-08-07T04:10:53.857Z,98201.00
2022-08-07T04:14:10.033Z,98199.00
2022-08-07T04:16:30.063Z,98198.00
2022-08-07T04:19:01.592Z,98190.00
2022-08-07T04:21:33.365Z,98190.00
2022-08-07T04:24:07.259Z,98189.00
2022-08-07T04:26:35.567Z,98194.00
2022-08-07T04:29:03.347Z,98200.00
2022-08-07T04:32:02.359Z,98200.00
2022-08-07T04:34:24.200Z,98206.00
2022-08-07T04:37:01.402Z,98204.00
2022-08-07T04:39:35.637Z,98205.00
2022-08-07T04:42:04.595Z,98198.00
2022-08-07T04:44:33.229Z,98205.00
2022-08-07T04:47:10.149Z,98199.00
2022-08-07T04:50:13.977Z,98209.00
2022-08-07T04:53:00.264Z,98206.00
2022-08-07T04:58:15.999Z,98203.00
2022-08-07T05:01:54.360Z,98211.00
2022-08-07T05:04:50.101Z,98205.00
2022-08-07T05:07:30.600Z,98206.00
2022-08-07T05:10:24.778Z,98207.00
2022-08-07T05:14:45.677Z,98201.00
2022-08-07T05:16:00.390Z,98206.00
2022-08-07T05:18:37.027Z,98205.00
2022-08-07T05:21:06.576Z,98205.00
2022-08-07T05:23:58.694Z,98206.00
2022-08-07T05:26:29.906Z,98207.00
2022-08-07T05:29:04.050Z,98206.00
2022-08-07T05:31:39.635Z,98207.00
2022-08-07T05:34:12.078Z,98203.00
2022-08-07T05:36:43.592Z,98210.00
2022-08-07T05:40:07.141Z,98209.00
2022-08-07T05:42:01.823Z,98219.00
2022-08-07T05:44:34.542Z,98212.00
2022-08-07T05:47:18.003Z,98208.00
2022-08-07T05:49:51.590Z,98207.00
2022-08-07T05:52:32.459Z,98210.00
2022-08-07T05:55:07.269Z,98206.00
2022-08-07T05:57:41.936Z,98210.00
2022-08-07T06:00:16.079Z,98208.00
2022-08-07T06:02:50.035Z,98215.00
2022-08-07T06:05:19.611Z,98212.00
2022-08-07T06:08:30.437Z,98209.00
2022-08-07T06:10:37.632Z,98212.00
2022-08-07T06:13:05.064Z,98207.00
2022-08-07T06:15:42.130Z,98215.00
2022-08-07T06:18:14.008Z,98211.00
2022-08-07T06:20:51.150Z,98211.00
2022-08-07T06:24:37.691Z,98210.00
2022-08-07T06:26:20.716Z,98215.00
2022-08-07T06:28:53.752Z,98218.00
2022-08-07T06:31:38.569Z,98215.00
2022-08-07T06:34:08.956Z,98213.00
2022-08-07T06:36:37.047Z,98212.00
2022-08-07T06:40:15.817Z,98213.00
2022-08-07T06:42:10.345Z,98208.00
2022-08-07T06:44:40.179Z,98220.00
2022-08-07T06:47:10.517Z,98203.00
2022-08-07T06:49:51.569Z,98204.00
2022-08-07T06:52:35.645Z,98200.00
2022-08-07T06:56:00.489Z,98207.00
2022-08-07T06:58:21.303Z,98205.00
2022-08-07T07:00:52.942Z,98212.00
2022-08-07T07:03:39.779Z,98207.00
2022-08-07T07:06:11.233Z,98203.00
2022-08-07T07:08:39.984Z,98208.00
2022-08-07T07:12:08.960Z,98206.00
2022-08-07T07:14:04.307Z,98215.00
2022-08-07T07:16:50.807Z,98213.00
2022-08-07T07:19:55.717Z,98208.00
2022-08-07T07:22:35.765Z,98208.00
2022-08-07T07:26:31.400Z,98211.00
2022-08-07T07:28:42.348Z,98206.00
2022-08-07T07:31:17.231Z,98204.00
2022-08-07T07:33:56.923Z,98209.00
2022-08-07T07:36:32.389Z,98213.00
2022-08-07T07:39:03.165Z,98208.00
2022-08-07T07:41:50.851Z,98209.00
2022-08-07T07:44:26.475Z,98207.00
2022-08-07T07:47:04.361Z,98203.00
2022-08-07T07:50:35.973Z,98199.00
2022-08-07T07:52:34.348Z,98199.00
2022-08-07T07:55:06.527Z,98200.00
2022-08-07T07:57:51.625Z,98201.00
2022-08-07T08:00:31.266Z,98205.00
2022-08-07T08:03:16.645Z,98193.00
2022-08-07T08:06:02.871Z,98198.00
2022-08-07T08:08:37.038Z,98195.00
2022-08-07T08:11:16.640Z,98202.00
2022-08-07T08:13:53.124Z,98213.00
2022-08-07T08:16:39.321Z,98205.00
2022-08-07T08:20:15.830Z,98203.00
2022-08-07T08:22:18.156Z,98199.00
2022-08-07T08:25:24.995Z,98199.00
2022-08-07T08:28:01.907Z,98196.00
2022-08-07T08:30:34.787Z,98192.00
2022-08-07T08:33:10.613Z,98201.00
2022-08-07T08:35:49.980Z,98205.00
2022-08-07T08:38:25.896Z,98205.00
2022-08-07T08:41:11.900Z,98208.00
2022-08-07T08:44:06.099Z,98202.00
2022-08-07T08:47:07.722Z,98203.00
2022-08-07T08:50:02.406Z,98202.00
2022-08-07T08:53:13.834Z,98206.00
2022-08-07T08:56:01.885Z,98210.00
2022-08-07T08:58:50.641Z,98216.00
2022-08-07T09:01:29.875Z,98215.00
2022-08-07T09:04:30.693Z,98213.00
2022-08-07T09:07:58.555Z,98212.00
2022-08-07T09:10:44.115Z,98211.00
2022-08-07T09:14:16.336Z,98204.00
2022-08-07T09:16:47.769Z,98211.00
2022-08-07T09:19:53.135Z,98205.00
2022-08-07T09:24:32.304Z,98208.00
2022-08-07T09:25:54.646Z,98205.00
2022-08-07T09:30:01.099Z,98206.00
2022-08-07T09:31:57.547Z,98210.00
2022-08-07T09:34:34.785Z,98194.00
2022-08-07T09:37:48.573Z,98191.00
2022-08-07T09:40:24.408Z,98197.00
2022-08-07T09:44:03.636Z,98186.00
2022-08-07T09:47:49.494Z,98186.00
2022-08-07T09:51:25.998Z,98187.00
2022-08-07T09:54:02.798Z,98188.00
2022-08-07T09:57:12.966Z,98182.00
2022-08-07T10:00:04.792Z,98177.00
2022-08-07T10:02:55.629Z,98175.00
2022-08-07T10:06:04.367Z,98177.00
2022-08-07T10:09:05.532Z,98167.00
2022-08-07T10:12:26.283Z,98173.00
2022-08-07T10:15:15.201Z,98170.00
2022-08-07T10:18:19.774Z,98166.00
2022-08-07T10:21:05.272Z,98170.00
2022-08-07T10:24:05.121Z,98167.00
2022-08-07T10:27:24.749Z,98158.00
2022-08-07T10:30:14.610Z,98158.00
2022-08-07T10:33:08.497Z,98156.00
2022-08-07T10:36:29.677Z,98162.00
2022-08-07T10:39:42.233Z,98148.00
2022-08-07T10:42:39.343Z,98144.00
2022-08-07T10:45:19.345Z,98150.00
2022-08-07T10:48:35.108Z,98144.00
2022-08-07T10:51:16.750Z,98144.00
2022-08-07T10:54:12.413Z,98147.00
2022-08-07T10:57:07.490Z,98149.00
2022-08-07T11:00:36.871Z,98144.00
2022-08-07T11:03:28.093Z,98146.00
2022-08-07T11:06:18.188Z,98147.00
2022-08-07T11:10:09.676Z,98147.00
2022-08-07T11:12:31.778Z,98141.00
2022-08-07T11:15:14.631Z,98124.00
2022-08-07T11:17:54.687Z,98123.00
2022-08-07T11:20:36.414Z,98126.00
2022-08-07T11:23:26.326Z,98134.00
2022-08-07T11:26:50.335Z,98121.00
2022-08-07T11:29:42.855Z,98123.00
2022-08-07T11:32:25.848Z,98114.00
2022-08-07T11:35:16.683Z,98111.00
2022-08-07T11:38:21.988Z,98116.00
2022-08-07T11:41:03.273Z,98115.00
2022-08-07T11:44:12.699Z,98118.00
2022-08-07T11:47:07.142Z,98111.00
2022-08-07T11:50:31.431Z,98117.00
2022-08-07T11:53:06.214Z,98113.00
2022-08-07T11:56:26.987Z,98094.00
2022-08-07T12:00:08.815Z,98114.00
2022-08-07T12:02:52.763Z,98102.00
2022-08-07T12:05:48.851Z,98104.00
2022-08-07T12:08:37.026Z,98104.00
2022-08-07T12:11:21.156Z,98103.00
2022-08-07T12:13:52.304Z,98100.00
2022-08-07T12:16:30.872Z,98100.00
2022-08-07T12:19:56.366Z,98094.00
2022-08-07T12:22:58.987Z,98088.00
2022-08-07T12:26:03.272Z,98091.00
2022-08-07T12:29:07.832Z,98077.00
2022-08-07T12:32:18.594Z,98088.00
2022-08-07T12:34:49.546Z,98095.00
2022-08-07T12:37:28.322Z,98083.00
2022-08-07T12:40:44.003Z,98086.00
2022-08-07T12:43:09.365Z,98085.00
2022-08-07T12:46:15.981Z,98077.00
2022-08-07T12:49:48.951Z,98078.00
2022-08-07T12:53:05.381Z,98066.00
2022-08-07T12:56:09.138Z,98076.00
2022-08-07T12:58:42.938Z,98067.00
2022-08-07T13:01:32.575Z,98062.00
2022-08-07T13:04:19.033Z,98071.00
2022-08-07T13:08:11.640Z,98061.00
2022-08-07T13:10:39.506Z,98057.00
2022-08-07T13:13:48.246Z,98057.00
2022-08-07T13:16:42.986Z,98052.00
2022-08-07T13:19:46.194Z,98045.00
2022-08-07T13:22:36.631Z,98041.00
2022-08-07T13:25:24.203Z,98048.00
2022-08-07T13:28:10.789Z,98043.00
2022-08-07T13:30:52.160Z,98039.00
2022-08-07T13:34:30.213Z,98038.00
2022-08-07T13:36:39.827Z,98037.00
2022-08-07T13:40:34.184Z,98037.00
2022-08-07T13:42:40.026Z,98028.00
2022-08-07T13:46:07.346Z,98027.00
2022-08-07T13:48:08.306Z,98023.00
2022-08-07T13:50:55.533Z,98029.00
2022-08-07T13:53:59.882Z,98023.00
2022-08-07T13:56:35.738Z,98014.00
2022-08-07T13:59:15.731Z,98033.00
2022-08-07T14:02:10.190Z,98026.00
2022-08-07T14:04:54.952Z,98026.00
2022-08-07T14:07:28.257Z,98011.00
2022-08-07T14:10:16.523Z,98011.00
2022-08-07T14:13:03.790Z,98013.00
2022-08-07T14:15:41.181Z,98010.00
2022-08-07T14:18:28.675Z,98010.00
2022-08-07T14:22:02.234Z,97999.00
2022-08-07T14:24:41.201Z,98014.00
2022-08-07T14:28:09.492Z,98013.00
2022-08-07T14:30:12.642Z,98013.00
2022-08-07T14:32:50.977Z,98013.00
2022-08-07T14:35:42.779Z,98014.00
2022-08-07T14:38:26.615Z,98018.00
2022-08-07T14:41:12.391Z,98022.00
2022-08-07T14:43:57.357Z,98015.00
2022-08-07T14:46:32.425Z,98017.00
2022-08-07T14:49:56.018Z,98021.00
2022-08-07T14:52:03.170Z,98015.00
2022-08-07T14:54:43.028Z,98007.00
2022-08-07T14:57:19.619Z,98010.00
2022-08-07T15:02:39.234Z,98000.00
2022-08-07T15:05:20.006Z,98006.00
2022-08-07T15:07:51.805Z,98004.00
2022-08-07T15:10:29.755Z,98000.00
2022-08-07T15:13:11.678Z,98001.00
2022-08-07T15:15:52.384Z,97999.00
2022-08-07T15:18:35.994Z,97999.00
2022-08-07T15:21:58.395Z,97996.00
2022-08-07T15:27:34.414Z,97995.00
2022-08-07T15:30:16.300Z,97996.00
2022-08-07T15:32:50.696Z,97987.00
2022-08-07T15:36:00.388Z,97988.00
2022-08-07T15:38:30.998Z,97985.00
2022-08-07T15:44:10.895Z,97987.00
2022-08-07T15:46:51.806Z,97986.00
2022-08-07T15:52:14.000Z,97990.00
2022-08-07T15:54:45.623Z,97986.00
2022-08-07T15:57:40.321Z,97979.00
2022-08-07T16:00:31.186Z,97971.00
2022-08-07T16:03:08.437Z,97972.00
2022-08-07T16:05:53.134Z,97968.00
2022-08-07T16:08:33.271Z,97975.00
2022-08-07T16:11:26.237Z,97972.00
2022-08-07T16:14:17.159Z,97975.00
2022-08-07T16:17:15.134Z,97963.00
2022-08-07T16:20:03.517Z,97960.00
2022-08-07T16:23:52.956Z,97954.00
2022-08-07T16:26:31.017Z,97956.00
2022-08-07T16:30:17.708Z,97955.00
2022-08-07T16:32:35.954Z,97962.00
2022-08-07T16:35:52.300Z,97968.00
2022-08-07T16:39:00.645Z,97964.00
2022-08-07T16:42:12.886Z,97960.00
2022-08-07T16:46:34.637Z,97955.00
2022-08-07T16:50:20.804Z,97951.00
2022-08-07T16:52:41.669Z,97962.00
2022-08-07T16:55:47.144Z,97963.00
2022-08-07T16:59:11.077Z,97966.00
2022-08-07T17:02:51.609Z,97964.00
2022-08-07T17:06:26.587Z,97971.00
2022-08-07T17:08:09.138Z,97969.00
2022-08-07T17:10:42.034Z,97977.00
2022-08-07T17:13:38.924Z,97975.00
2022-08-07T17:16:40.055Z,97975.00
2022-08-07T17:20:02.790Z,97979.00
2022-08-07T17:23:12.954Z,97981.00
2022-08-07T17:25:54.073Z,97976.00
2022-08-07T17:28:35.639Z,97980.00
2022-08-07T17:31:44.276Z,97975.00
2022-08-07T17:35:32.981Z,97978.00
2022-08-07T17:38:05.005Z,97981.00
2022-08-07T17:40:56.927Z,97984.00
2022-08-07T17:44:02.822Z,97992.00
2022-08-07T17:46:43.575Z,97993.00
2022-08-07T17:49:45.302Z,97997.00
2022-08-07T17:52:41.645Z,97993.00
2022-08-07T17:55:55.046Z,97991.00
2022-08-07T17:58:30.579Z,97988.00
2022-08-07T18:01:20.741Z,97996.00
2022-08-07T18:04:08.004Z,98002.00
2022-08-07T18:07:12.836Z,98004.00
2022-08-07T18:10:07.562Z,97998.00
2022-08-07T18:12:52.119Z,97997.00
2022-08-07T18:15:32.843Z,98001.00
2022-08-07T18:19:02.659Z,97996.00
2022-08-07T18:21:58.372Z,97994.00
2022-08-07T18:24:33.255Z,98001.00
2022-08-07T18:27:38.570Z,98005.00
2022-08-07T18:30:32.594Z,98012.00
2022-08-07T18:33:29.976Z,98006.00
2022-08-07T18:36:33.152Z,98017.00
2022-08-07T18:40:06.373Z,98013.00
2022-08-07T18:43:06.552Z,98014.00
2022-08-07T18:46:24.702Z,98006.00
2022-08-07T18:50:31.977Z,98014.00
2022-08-07T18:52:53.733Z,98018.00
2022-08-07T18:55:42.331Z,98028.00
2022-08-07T18:58:59.216Z,98030.00
2022-08-07T19:02:18.574Z,98039.00
2022-08-07T19:05:10.699Z,98034.00
2022-08-07T19:08:11.462Z,98041.00
2022-08-07T19:10:52.203Z,98041.00
2022-08-07T19:13:29.067Z,98047.00
2022-08-07T19:17:06.810Z,98053.00
2022-08-07T19:19:54.419Z,98066.00
2022-08-07T19:22:38.161Z,98067.00
2022-08-07T19:25:13.492Z,98064.00
2022-08-07T19:28:58.224Z,98072.00
2022-08-07T19:31:42.774Z,98067.00
2022-08-07T19:34:00.294Z,98074.00
2022-08-07T19:36:30.188Z,98072.00
2022-08-07T19:39:00.763Z,98068.00
2022-08-07T19:42:07.957Z,98067.00
2022-08-07T19:44:41.025Z,98072.00
2022-08-07T19:47:12.033Z,98074.00
2022-08-07T19:49:58.515Z,98076.00
2022-08-07T19:52:31.491Z,98082.00
2022-08-07T19:54:59.795Z,98079.00
2022-08-07T19:58:03.204Z,98088.00
2022-08-07T20:00:34.498Z,98087.00
2022-08-07T20:03:35.670Z,98084.00
2022-08-07T20:06:03.916Z,98081.00
2022-08-07T20:08:37.456Z,98084.00
2022-08-07T20:11:15.106Z,98083.00
2022-08-07T20:13:55.820Z,98084.00
2022-08-07T20:16:35.093Z,98085.00
2022-08-07T20:19:10.081Z,98086.00
2022-08-07T20:21:47.700Z,98089.00
2022-08-07T20:24:28.711Z,98089.00
2022-08-07T20:27:02.497Z,98084.00
2022-08-07T20:29:49.493Z,98084.00
2022-08-07T20:32:43.553Z,98092.00
2022-08-07T20:35:21.986Z,98091.00
2022-08-07T20:37:58.387Z,98092.00
2022-08-07T20:40:32.787Z,98083.00
2022-08-07T20:43:14.773Z,98083.00
2022-08-07T20:46:26.124Z,98085.00
2022-08-07T20:48:58.159Z,98084.00
2022-08-07T20:51:35.901Z,98083.00
2022-08-07T20:54:11.840Z,98085.00
2022-08-07T20:56:48.259Z,98079.00
2022-08-07T21:00:04.673Z,98073.00
2022-08-07T21:02:38.373Z,98076.00
2022-08-07T21:05:16.400Z,98072.00
2022-08-07T21:07:48.973Z,98070.00
2022-08-07T21:10:25.168Z,98064.00
2022-08-07T21:13:05.347Z,98065.00
2022-08-07T21:15:47.558Z,98058.00
2022-08-07T21:18:33.797Z,98057.00
2022-08-07T21:21:02.578Z,98061.00
2022-08-07T21:24:03.469Z,98059.00
2022-08-07T21:27:15.161Z,98057.00
2022-08-07T21:30:11.077Z,98061.00
2022-08-07T21:33:05.115Z,98068.00
2022-08-07T21:36:05.133Z,98064.00
2022-08-07T21:39:45.935Z,98067.00
2022-08-07T21:42:42.554Z,98070.00
2022-08-07T21:46:09.224Z,98069.00
2022-08-07T21:48:33.536Z,98076.00
2022-08-07T21:51:20.306Z,98081.00
2022-08-07T21:54:00.600Z,98085.00
2022-08-07T21:56:47.838Z,98085.00
2022-08-07T22:00:23.050Z,98093.00
2022-08-07T22:03:16.809Z,98088.00
2022-08-07T22:06:30.680Z,98083.00
2022-08-07T22:09:10.436Z,98094.00
2022-08-07T22:12:05.897Z,98085.00
2022-08-07T22:16:39.328Z,98089.00
2022-08-07T22:18:01.332Z,98088.00
2022-08-07T22:20:47.177Z,98094.00
2022-08-07T22:23:46.867Z,98097.00
2022-08-07T22:26:28.818Z,98101.00
2022-08-07T22:29:34.058Z,98095.00
2022-08-07T22:32:38.444Z,98096.00
2022-08-07T22:35:11.576Z,98100.00
2022-08-07T22:38:03.336Z,98103.00
2022-08-07T22:41:14.344Z,98102.00
2022-08-07T22:43:59.110Z,98098.00
2022-08-07T22:47:16.812Z,98098.00
2022-08-07T22:49:59.475Z,98100.00
2022-08-07T22:53:03.687Z,98092.00
2022-08-07T22:55:58.113Z,98094.00
2022-08-07T22:59:12.080Z,98092.00
2022-08-07T23:02:08.311Z,98089.00
2022-08-07T23:06:09.689Z,98092.00
2022-08-07T23:10:00.784Z,98098.00
2022-08-07T23:12:00.908Z,98093.00
2022-08-07T23:15:09.213Z,98097.00
2022-08-07T23:18:32.249Z,98101.00
2022-08-07T23:21:20.941Z,98101.00
2022-08-07T23:24:24.291Z,98092.00
2022-08-07T23:27:33.726Z,98096.00
2022-08-07T23:30:38.188Z,98091.00
2022-08-07T23:34:22.687Z,98088.00
2022-08-07T23:37:20.201Z,98094.00
2022-08-07T23:40:27.733Z,98088.00
2022-08-07T23:43:37.890Z,98088.00
2022-08-07T23:46:30.206Z,98077.00
2022-08-07T23:49:47.487Z,98071.00
2022-08-07T23:53:00.394Z,98074.00
2022-08-07T23:55:46.983Z,98075.00
2022-08-07T23:58:34.993Z,98071.00
